Joshua Tree, California
Current Conditions -  °F | °C
As of 8:08 AM on Wednesday 28 Jan 2015 (Local Time) from KNXP Reporting Station
Moderate Fog Moderate Fog  
Wind Chill: 44°   Ceiling: 100
Heat Index: 44°   Visibility: 0.5mi
Dew Point: 44°   Wind: 0mph
Humidity: 100%   Direction: NA
Pressure: 30.31"   Gusts: NA
Location:  34.13°N, 116.31°W
Report Text: KNXP 281608Z 00000KT 1/2SM FG VV001 07/07 A3031 RMK AO2 T00670067 $
Loading
Personal Weather Stations






























Interactive Weather Map New forecast layout! Learn more

10-Day Weather Forecast

Advertisements
Track Severe Weather on mobile